sensor_id;sensor_type;location;lat;lon;timestamp;pressure;altitude;pressure_sealevel;temperature;humidity
76052;BME280;64751;48.708;9.710;2023-06-10T14:32:46;97195.19;;;24.69;42.21
76052;BME280;64751;48.708;9.710;2023-06-10T14:35:13;97188.59;;;24.63;42.48
76052;BME280;64751;48.708;9.710;2023-06-10T14:37:41;97186.72;;;24.70;45.78
76052;BME280;64751;48.708;9.710;2023-06-10T14:40:09;97181.00;;;24.79;42.59
76052;BME280;64751;48.708;9.710;2023-06-10T14:42:37;97180.34;;;24.99;42.73
76052;BME280;64751;48.708;9.710;2023-06-10T14:45:05;97183.50;;;25.15;41.61
76052;BME280;64751;48.708;9.710;2023-06-10T14:47:34;97175.06;;;25.31;42.82
76052;BME280;64751;48.708;9.710;2023-06-10T14:50:03;97178.25;;;25.44;42.28
76052;BME280;64751;48.708;9.710;2023-06-10T14:52:31;97173.63;;;25.44;41.69
76052;BME280;64751;48.708;9.710;2023-06-10T14:54:59;97180.59;;;25.56;43.05
76052;BME280;64751;48.708;9.710;2023-06-10T14:57:27;97168.25;;;25.65;41.11
76052;BME280;64751;48.708;9.710;2023-06-10T14:59:55;97162.84;;;25.76;41.67
76052;BME280;64751;48.708;9.710;2023-06-10T15:02:23;97169.06;;;25.87;43.94
76052;BME280;64751;48.708;9.710;2023-06-10T15:04:51;97177.19;;;25.98;43.91
76052;BME280;64751;48.708;9.710;2023-06-10T15:07:20;97168.69;;;26.03;44.71
76052;BME280;64751;48.708;9.710;2023-06-10T15:09:48;97166.75;;;26.03;43.24
76052;BME280;64751;48.708;9.710;2023-06-10T15:12:16;97166.00;;;26.10;40.81
76052;BME280;64751;48.708;9.710;2023-06-10T15:14:43;97166.00;;;26.10;40.73
76052;BME280;64751;48.708;9.710;2023-06-10T15:17:11;97159.44;;;26.11;40.18
76052;BME280;64751;48.708;9.710;2023-06-10T15:19:39;97161.34;;;26.07;41.13
76052;BME280;64751;48.708;9.710;2023-06-10T15:22:07;97162.56;;;26.09;41.75
76052;BME280;64751;48.708;9.710;2023-06-10T15:24:36;97157.47;;;26.08;43.55
76052;BME280;64751;48.708;9.710;2023-06-10T15:27:04;97154.81;;;26.11;41.27
76052;BME280;64751;48.708;9.710;2023-06-10T15:29:31;97154.41;;;26.13;41.38
76052;BME280;64751;48.708;9.710;2023-06-10T15:31:59;97152.88;;;26.15;42.55
76052;BME280;64751;48.708;9.710;2023-06-10T15:34:27;97157.50;;;26.15;41.93
76052;BME280;64751;48.708;9.710;2023-06-10T15:36:54;97155.97;;;26.14;40.54
76052;BME280;64751;48.708;9.710;2023-06-10T15:39:22;97156.75;;;26.11;42.21
76052;BME280;64751;48.708;9.710;2023-06-10T15:41:52;97159.44;;;26.11;41.84
76052;BME280;64751;48.708;9.710;2023-06-10T15:44:19;97149.00;;;26.13;42.12
76052;BME280;64751;48.708;9.710;2023-06-10T15:46:47;97148.63;;;26.11;39.29
76052;BME280;64751;48.708;9.710;2023-06-10T15:49:14;97147.44;;;26.05;39.53
76052;BME280;64751;48.708;9.710;2023-06-10T15:51:42;97152.44;;;26.06;42.20
76052;BME280;64751;48.708;9.710;2023-06-10T15:54:09;97154.38;;;26.06;41.65
76052;BME280;64751;48.708;9.710;2023-06-10T15:56:37;97145.88;;;26.07;41.66
76052;BME280;64751;48.708;9.710;2023-06-10T15:59:07;97145.13;;;26.07;41.57
76052;BME280;64751;48.708;9.710;2023-06-10T16:01:35;97153.22;;;26.03;42.81
76052;BME280;64751;48.708;9.710;2023-06-10T16:04:03;97150.53;;;26.07;43.82
76052;BME280;64751;48.708;9.710;2023-06-10T16:06:30;97153.97;;;26.07;44.60
76052;BME280;64751;48.708;9.710;2023-06-10T16:08:58;97155.13;;;26.03;40.59
76052;BME280;64751;48.708;9.710;2023-06-10T16:11:26;97146.63;;;26.01;40.00
76052;BME280;64751;48.708;9.710;2023-06-10T16:13:53;97149.75;;;25.99;41.25
76052;BME280;64751;48.708;9.710;2023-06-10T16:16:22;97151.28;;;25.93;42.02
76052;BME280;64751;48.708;9.710;2023-06-10T16:18:49;97145.84;;;25.89;43.37
76052;BME280;64751;48.708;9.710;2023-06-10T16:21:17;97150.91;;;25.95;42.67
76052;BME280;64751;48.708;9.710;2023-06-10T16:23:45;97148.97;;;25.95;42.44
76052;BME280;64751;48.708;9.710;2023-06-10T16:26:12;97150.91;;;25.98;40.70
76052;BME280;64751;48.708;9.710;2023-06-10T16:28:40;97144.72;;;25.98;42.33
76052;BME280;64751;48.708;9.710;2023-06-10T16:31:07;97154.78;;;25.94;44.13
76052;BME280;64751;48.708;9.710;2023-06-10T16:33:36;97146.66;;;25.86;43.36
76052;BME280;64751;48.708;9.710;2023-06-10T16:36:04;97159.00;;;25.80;41.99
76052;BME280;64751;48.708;9.710;2023-06-10T16:38:32;97160.56;;;25.78;42.07
76052;BME280;64751;48.708;9.710;2023-06-10T16:41:00;97155.13;;;25.74;42.68
76052;BME280;64751;48.708;9.710;2023-06-10T16:43:27;97156.69;;;25.75;41.16
76052;BME280;64751;48.708;9.710;2023-06-10T16:45:55;97159.75;;;25.67;40.56
76052;BME280;64751;48.708;9.710;2023-06-10T16:48:23;97154.72;;;25.65;41.71
76052;BME280;64751;48.708;9.710;2023-06-10T16:50:52;97160.53;;;25.64;44.32
76052;BME280;64751;48.708;9.710;2023-06-10T16:53:19;97174.41;;;25.59;46.15
76052;BME280;64751;48.708;9.710;2023-06-10T16:55:47;97174.41;;;25.48;42.63
76052;BME280;64751;48.708;9.710;2023-06-10T16:58:14;97173.22;;;25.46;43.70
76052;BME280;64751;48.708;9.710;2023-06-10T17:00:42;97176.69;;;25.43;43.71
76052;BME280;64751;48.708;9.710;2023-06-10T17:03:12;97174.72;;;25.40;43.74
76052;BME280;64751;48.708;9.710;2023-06-10T17:05:39;97172.78;;;25.37;42.65
76052;BME280;64751;48.708;9.710;2023-06-10T17:08:08;97184.00;;;25.35;44.04
76052;BME280;64751;48.708;9.710;2023-06-10T17:10:36;97180.88;;;25.30;43.86
76052;BME280;64751;48.708;9.710;2023-06-10T17:13:03;97184.31;;;25.27;43.60
76052;BME280;64751;48.708;9.710;2023-06-10T17:15:30;97187.75;;;25.20;42.39
76052;BME280;64751;48.708;9.710;2023-06-10T17:17:58;97191.63;;;25.19;43.27
76052;BME280;64751;48.708;9.710;2023-06-10T17:20:25;97192.78;;;25.18;43.57
76052;BME280;64751;48.708;9.710;2023-06-10T17:22:55;97191.59;;;25.12;41.97
76052;BME280;64751;48.708;9.710;2023-06-10T17:25:24;97192.75;;;25.11;42.95
76052;BME280;64751;48.708;9.710;2023-06-10T17:27:52;97199.28;;;25.06;44.19
76052;BME280;64751;48.708;9.710;2023-06-10T17:30:19;97206.25;;;25.04;45.20
76052;BME280;64751;48.708;9.710;2023-06-10T17:32:47;97203.50;;;25.00;42.65
76052;BME280;64751;48.708;9.710;2023-06-10T17:35:16;97205.03;;;24.98;43.31
76052;BME280;64751;48.708;9.710;2023-06-10T17:37:44;97207.34;;;24.96;45.67
76052;BME280;64751;48.708;9.710;2023-06-10T17:40:12;97207.34;;;24.92;45.03
76052;BME280;64751;48.708;9.710;2023-06-10T17:42:41;97203.84;;;24.92;42.55
76052;BME280;64751;48.708;9.710;2023-06-10T17:45:09;97211.56;;;24.93;42.61
76052;BME280;64751;48.708;9.710;2023-06-10T17:47:37;97215.84;;;24.94;42.75
76052;BME280;64751;48.708;9.710;2023-06-10T17:50:05;97213.50;;;24.93;45.32
76052;BME280;64751;48.708;9.710;2023-06-10T17:52:32;97222.78;;;24.92;44.02
76052;BME280;64751;48.708;9.710;2023-06-10T17:55:00;97228.19;;;24.95;44.70
76052;BME280;64751;48.708;9.710;2023-06-10T17:57:28;97221.66;;;25.00;43.16
76052;BME280;64751;48.708;9.710;2023-06-10T17:59:59;97225.91;;;25.04;43.91
76052;BME280;64751;48.708;9.710;2023-06-10T18:02:26;97227.47;;;25.05;42.79
76052;BME280;64751;48.708;9.710;2023-06-10T18:04:54;97220.47;;;24.94;42.33
76052;BME280;64751;48.708;9.710;2023-06-10T18:07:21;97229.72;;;24.93;42.44
76052;BME280;64751;48.708;9.710;2023-06-10T18:09:49;97233.53;;;24.88;42.60
76052;BME280;64751;48.708;9.710;2023-06-10T18:12:16;97232.00;;;24.84;43.83
76052;BME280;64751;48.708;9.710;2023-06-10T18:14:44;97236.97;;;24.78;43.45
76052;BME280;64751;48.708;9.710;2023-06-10T18:17:13;97238.78;;;24.67;43.87
76052;BME280;64751;48.708;9.710;2023-06-10T18:19:40;97241.84;;;24.62;43.70
76052;BME280;64751;48.708;9.710;2023-06-10T18:22:08;97244.94;;;24.64;44.09
76052;BME280;64751;48.708;9.710;2023-06-10T18:24:35;97242.59;;;24.59;44.65
76052;BME280;64751;48.708;9.710;2023-06-10T18:27:03;97234.00;;;24.46;44.92
76052;BME280;64751;48.708;9.710;2023-06-10T18:29:31;97255.25;;;24.52;45.36
76052;BME280;64751;48.708;9.710;2023-06-10T18:31:59;97253.28;;;24.45;45.72
76052;BME280;64751;48.708;9.710;2023-06-10T18:34:28;97257.84;;;24.37;45.44
76052;BME280;64751;48.708;9.710;2023-06-10T18:36:56;97263.22;;;24.34;45.14
76052;BME280;64751;48.708;9.710;2023-06-10T18:39:23;97265.84;;;24.27;45.45
76052;BME280;64751;48.708;9.710;2023-06-10T18:41:51;97268.44;;;24.16;45.69
76052;BME280;64751;48.708;9.710;2023-06-10T18:44:18;97259.09;;;24.07;46.12
76052;BME280;64751;48.708;9.710;2023-06-10T18:46:46;97263.59;;;23.99;45.39
76052;BME280;64751;48.708;9.710;2023-06-10T18:49:15;97278.19;;;23.95;45.78
76052;BME280;64751;48.708;9.710;2023-06-10T18:51:43;97281.97;;;23.87;46.03
76052;BME280;64751;48.708;9.710;2023-06-10T18:54:11;97275.31;;;23.77;47.01
76052;BME280;64751;48.708;9.710;2023-06-10T18:56:39;97282.53;;;23.69;46.60
76052;BME280;64751;48.708;9.710;2023-06-10T18:59:06;97280.13;;;23.61;47.62
76052;BME280;64751;48.708;9.710;2023-06-10T19:01:34;97290.41;;;23.52;48.91
76052;BME280;64751;48.708;9.710;2023-06-10T19:04:02;97291.84;;;23.42;49.23
76052;BME280;64751;48.708;9.710;2023-06-10T19:06:30;97295.22;;;23.36;48.41
76052;BME280;64751;48.708;9.710;2023-06-10T19:08:59;97298.91;;;23.28;47.49
76052;BME280;64751;48.708;9.710;2023-06-10T19:11:27;97299.59;;;23.21;47.56
76052;BME280;64751;48.708;9.710;2023-06-10T19:13:55;97307.25;;;23.16;47.47
76052;BME280;64751;48.708;9.710;2023-06-10T19:16:22;97312.63;;;23.16;47.95
76052;BME280;64751;48.708;9.710;2023-06-10T19:18:50;97307.97;;;23.13;48.38
76052;BME280;64751;48.708;9.710;2023-06-10T19:21:18;97319.41;;;23.06;48.87
76052;BME280;64751;48.708;9.710;2023-06-10T19:23:45;97317.00;;;23.01;49.14
76052;BME280;64751;48.708;9.710;2023-06-10T19:26:14;97319.59;;;22.94;49.20
76052;BME280;64751;48.708;9.710;2023-06-10T19:28:42;97320.28;;;22.87;49.78
76052;BME280;64751;48.708;9.710;2023-06-10T19:31:10;97322.13;;;22.83;49.88
76052;BME280;64751;48.708;9.710;2023-06-10T19:33:37;97326.69;;;22.79;50.09
76052;BME280;64751;48.708;9.710;2023-06-10T19:36:05;97324.28;;;22.74;50.42
76052;BME280;64751;48.708;9.710;2023-06-10T19:38:33;97338.84;;;22.70;50.04
76052;BME280;64751;48.708;9.710;2023-06-10T19:41:01;97344.88;;;22.63;50.57
76052;BME280;64751;48.708;9.710;2023-06-10T19:43:31;97344.34;;;22.58;50.72
76052;BME280;64751;48.708;9.710;2023-06-10T19:45:59;97343.91;;;22.52;51.36
76052;BME280;64751;48.708;9.710;2023-06-10T19:48:27;97347.66;;;22.48;51.56
76052;BME280;64751;48.708;9.710;2023-06-10T19:50:54;97347.53;;;22.41;53.28
76052;BME280;64751;48.708;9.710;2023-06-10T19:53:23;97358.16;;;22.33;52.34
76052;BME280;64751;48.708;9.710;2023-06-10T19:55:50;97364.19;;;22.27;51.85
76052;BME280;64751;48.708;9.710;2023-06-10T19:58:18;97371.00;;;22.21;52.29
76052;BME280;64751;48.708;9.710;2023-06-10T20:00:47;97372.41;;;22.15;51.83
76052;BME280;64751;48.708;9.710;2023-06-10T20:03:14;97370.44;;;22.12;51.54
76052;BME280;64751;48.708;9.710;2023-06-10T20:05:42;97375.75;;;22.08;51.93
76052;BME280;64751;48.708;9.710;2023-06-10T20:08:09;97376.88;;;22.07;51.87
76052;BME280;64751;48.708;9.710;2023-06-10T20:10:37;97381.75;;;22.02;52.01
76052;BME280;64751;48.708;9.710;2023-06-10T20:13:04;97372.94;;;22.01;51.86
76052;BME280;64751;48.708;9.710;2023-06-10T20:15:32;97370.25;;;22.01;52.09
76052;BME280;64751;48.708;9.710;2023-06-10T20:18:01;97364.00;;;21.97;52.06
76052;BME280;64751;48.708;9.710;2023-06-10T20:20:28;97374.28;;;21.92;52.46
76052;BME280;64751;48.708;9.710;2023-06-10T20:22:56;97373.75;;;21.86;52.84
76052;BME280;64751;48.708;9.710;2023-06-10T20:25:24;97375.56;;;21.82;52.99
76052;BME280;64751;48.708;9.710;2023-06-10T20:27:51;97377.06;;;21.80;53.52
76052;BME280;64751;48.708;9.710;2023-06-10T20:30:19;97381.63;;;21.79;53.97
76052;BME280;64751;48.708;9.710;2023-06-10T20:32:47;97385.84;;;21.77;53.60
76052;BME280;64751;48.708;9.710;2023-06-10T20:35:15;97390.44;;;21.76;53.90
76052;BME280;64751;48.708;9.710;2023-06-10T20:37:43;97391.56;;;21.75;54.33
76052;BME280;64751;48.708;9.710;2023-06-10T20:40:11;97386.03;;;21.68;54.22
76052;BME280;64751;48.708;9.710;2023-06-10T20:42:39;97383.63;;;21.63;54.80
76052;BME280;64751;48.708;9.710;2023-06-10T20:45:08;97391.59;;;21.59;55.24
76052;BME280;64751;48.708;9.710;2023-06-10T20:47:36;97396.97;;;21.59;56.47
76052;BME280;64751;48.708;9.710;2023-06-10T20:50:04;97403.03;;;21.56;55.61
76052;BME280;64751;48.708;9.710;2023-06-10T20:52:33;97395.69;;;21.53;56.06
76052;BME280;64751;48.708;9.710;2023-06-10T20:55:00;97399.06;;;21.50;56.75
76052;BME280;64751;48.708;9.710;2023-06-10T20:57:28;97389.72;;;21.44;55.89
76052;BME280;64751;48.708;9.710;2023-06-10T20:59:55;97404.72;;;21.45;55.95
76052;BME280;64751;48.708;9.710;2023-06-10T21:02:23;97401.59;;;21.43;57.19
76052;BME280;64751;48.708;9.710;2023-06-10T21:04:50;97404.28;;;21.43;57.32
76052;BME280;64751;48.708;9.710;2023-06-10T21:07:18;97402.38;;;21.44;56.46
76052;BME280;64751;48.708;9.710;2023-06-10T21:09:47;97412.28;;;21.40;56.01
76052;BME280;64751;48.708;9.710;2023-06-10T21:12:14;97415.66;;;21.37;56.47
76052;BME280;64751;48.708;9.710;2023-06-10T21:14:42;97419.38;;;21.32;57.90
76052;BME280;64751;48.708;9.710;2023-06-10T21:17:10;97418.97;;;21.30;57.97
76052;BME280;64751;48.708;9.710;2023-06-10T21:19:39;97422.34;;;21.27;58.20
76052;BME280;64751;48.708;9.710;2023-06-10T21:22:07;97417.66;;;21.24;57.18
76052;BME280;64751;48.708;9.710;2023-06-10T21:24:34;97419.94;;;21.22;57.67
76052;BME280;64751;48.708;9.710;2023-06-10T21:27:04;97426.41;;;21.21;58.49
76052;BME280;64751;48.708;9.710;2023-06-10T21:29:33;97419.41;;;21.17;57.86
76052;BME280;64751;48.708;9.710;2023-06-10T21:32:01;97417.75;;;21.12;59.03
76052;BME280;64751;48.708;9.710;2023-06-10T21:34:28;97422.25;;;21.08;57.99
76052;BME280;64751;48.708;9.710;2023-06-10T21:36:56;97417.94;;;21.04;58.65
76052;BME280;64751;48.708;9.710;2023-06-10T21:39:23;97428.00;;;21.07;59.23
76052;BME280;64751;48.708;9.710;2023-06-10T21:41:51;97425.16;;;21.03;57.93
76052;BME280;64751;48.708;9.710;2023-06-10T21:44:20;97424.75;;;21.01;58.01
76052;BME280;64751;48.708;9.710;2023-06-10T21:46:47;97425.16;;;21.03;58.15
76052;BME280;64751;48.708;9.710;2023-06-10T21:49:15;97422.84;;;21.02;57.56
76052;BME280;64751;48.708;9.710;2023-06-10T21:51:42;97422.06;;;21.01;58.74
76052;BME280;64751;48.708;9.710;2023-06-10T21:54:11;97425.16;;;21.03;58.09
76052;BME280;64751;48.708;9.710;2023-06-10T21:56:38;97428.31;;;21.05;58.73
76052;BME280;64751;48.708;9.710;2023-06-10T21:59:06;97439.06;;;21.05;58.37
